Terminal Aerodrome Forecast
Issued by NWS

Home | Current Version | Previous Version | Graphics & Text | Print | Product List | Glossary On
Versions: 1 2 3 4 5 6 7 8 9 10 11 12
000
FTUS43 KFGF 241136
TAFBJI
TAF
KBJI 241136Z 2412/2512 15009KT P6SM SCT100
     FM242000 17014G20KT P6SM VCTS BKN070CB
     FM250600 18006KT P6SM SCT045 BKN250=

USA.gov is the U.S. government's official web portal to all federal, state and local government web resources and services.